Time;durP1;ratioP1;P1;durP2;ratioP2;P2;SDS_P1;SDS_P2;PMS_P1;PMS_P2;Temp;Humidity;BMP_temperature;BMP_pressure;BME280_temperature;BME280_humidity;BME280_pressure;Samples;Min_cycle;Max_cycle;Signal;HPM_P1;HPM_P2
2022/11/30 00:00:35;;;;;;;2.58;1.65;;;8.00;93.60;;;;;;5115411;28;20067;-74
2022/11/30 00:03:01;;;;;;;2.83;1.58;;;8.00;93.70;;;;;;5094586;28;20054;-75
2022/11/30 00:05:27;;;;;;;1.73;1.13;;;8.00;93.70;;;;;;5112942;28;20074;-75
2022/11/30 00:07:53;;;;;;;2.53;1.55;;;8.00;93.70;;;;;;5113363;28;20039;-75
2022/11/30 00:10:20;;;;;;;2.80;1.42;;;8.00;93.70;;;;;;5113036;28;20397;-75
2022/11/30 00:12:46;;;;;;;2.33;1.35;;;8.00;93.70;;;;;;5112830;28;20040;-75
2022/11/30 00:15:14;;;;;;;3.38;1.30;;;8.00;93.70;;;;;;5093939;28;20044;-75
2022/11/30 00:17:40;;;;;;;2.92;1.40;;;8.00;93.70;;;;;;5077679;28;20046;-75
2022/11/30 00:20:07;;;;;;;3.15;1.65;;;7.90;93.60;;;;;;5112614;28;20175;-74
2022/11/30 00:22:32;;;;;;;2.65;1.48;;;8.00;93.70;;;;;;5112258;28;20052;-74
2022/11/30 00:25:01;;;;;;;2.38;1.20;;;7.90;93.60;;;;;;5112262;28;20048;-74
2022/11/30 00:27:28;;;;;;;2.95;1.73;;;7.90;93.60;;;;;;5112324;28;20577;-74
2022/11/30 00:29:55;;;;;;;2.95;1.63;;;7.90;93.70;;;;;;5112541;28;20044;-74
2022/11/30 00:32:20;;;;;;;3.42;1.60;;;7.90;93.70;;;;;;5094705;28;20067;-74
2022/11/30 00:34:46;;;;;;;2.88;1.50;;;7.90;93.60;;;;;;5112357;28;20067;-74
2022/11/30 00:37:11;;;;;;;2.83;1.38;;;7.80;93.80;;;;;;5112888;28;20474;-74
2022/11/30 00:39:37;;;;;;;3.00;1.63;;;7.80;93.60;;;;;;5112346;28;20090;-74
2022/11/30 00:42:03;;;;;;;2.72;1.55;;;7.80;93.90;;;;;;5076877;28;20040;-74
2022/11/30 00:44:28;;;;;;;3.80;1.45;;;7.80;93.60;;;;;;5112332;28;20092;-74
2022/11/30 00:46:54;;;;;;;3.05;1.60;;;7.80;93.60;;;;;;5112472;28;20028;-74
2022/11/30 00:49:20;;;;;;;2.53;1.50;;;7.80;93.60;;;;;;5112534;28;20051;-73
2022/11/30 00:51:45;;;;;;;2.63;1.50;;;7.80;93.70;;;;;;5112152;28;20035;-74
2022/11/30 00:54:11;;;;;;;2.55;1.40;;;7.70;93.60;;;;;;5093742;28;20039;-74
2022/11/30 00:56:36;;;;;;;2.90;1.50;;;7.70;93.60;;;;;;5094328;28;20040;-74
2022/11/30 00:59:02;;;;;;;2.88;1.40;;;7.80;93.60;;;;;;5093762;28;20119;-74
2022/11/30 01:01:28;;;;;;;3.55;1.60;;;7.70;93.60;;;;;;5112416;28;20135;-73
2022/11/30 01:03:53;;;;;;;2.28;1.40;;;7.70;93.60;;;;;;5111908;28;20397;-74
2022/11/30 01:06:19;;;;;;;2.80;1.27;;;7.70;93.60;;;;;;5112476;28;20036;-74
2022/11/30 01:08:46;;;;;;;2.78;1.52;;;7.70;93.60;;;;;;5093799;28;20529;-74
2022/11/30 01:11:19;;;;;;;3.13;1.60;;;7.70;93.60;;;;;;5112427;28;20043;-74
2022/11/30 01:13:45;;;;;;;2.80;1.45;;;7.60;93.60;;;;;;5093556;28;20035;-74
2022/11/30 01:16:15;;;;;;;3.03;1.70;;;7.70;93.60;;;;;;5093677;28;20568;-74
2022/11/30 01:18:42;;;;;;;2.65;1.45;;;7.70;93.60;;;;;;5094496;28;20036;-74
2022/11/30 01:21:10;;;;;;;1.90;1.27;;;7.60;93.50;;;;;;5112441;28;20478;-74
2022/11/30 01:23:36;;;;;;;2.00;1.15;;;7.60;93.60;;;;;;5112267;28;20048;-74
2022/11/30 01:26:01;;;;;;;2.53;1.40;;;7.70;93.60;;;;;;5113851;28;20108;-74
2022/11/30 01:28:27;;;;;;;2.22;1.30;;;7.60;93.60;;;;;;5116054;28;20039;-74
2022/11/30 01:30:58;;;;;;;2.70;1.45;;;7.70;93.60;;;;;;5115991;28;20066;-74
2022/11/30 01:33:24;;;;;;;2.72;1.38;;;7.60;93.60;;;;;;5115792;28;20073;-73
2022/11/30 01:35:59;;;;;;;3.33;1.58;;;7.60;93.60;;;;;;5115236;28;20143;-74
2022/11/30 01:38:25;;;;;;;2.70;1.10;;;7.60;93.60;;;;;;5115293;28;20051;-73
2022/11/30 01:40:51;;;;;;;1.92;1.15;;;7.60;93.50;;;;;;5096967;28;20477;-74
2022/11/30 01:43:18;;;;;;;2.58;1.40;;;7.60;93.60;;;;;;5115599;28;20042;-74
2022/11/30 01:45:46;;;;;;;2.85;1.40;;;7.60;93.60;;;;;;5115079;28;20431;-74
2022/11/30 01:48:12;;;;;;;2.28;1.30;;;7.60;93.60;;;;;;5115602;28;20422;-74
2022/11/30 01:50:38;;;;;;;3.03;1.58;;;7.60;93.60;;;;;;5096864;28;20124;-74
2022/11/30 01:53:06;;;;;;;2.20;1.20;;;7.60;93.50;;;;;;5115474;28;20036;-74
2022/11/30 01:55:36;;;;;;;2.65;1.20;;;7.60;93.60;;;;;;5096632;28;20043;-73
2022/11/30 01:58:08;;;;;;;3.70;1.50;;;7.50;93.50;;;;;;5096845;28;20485;-74
2022/11/30 02:00:34;;;;;;;2.90;1.23;;;7.60;93.60;;;;;;5096589;28;20077;-74
2022/11/30 02:03:10;;;;;;;2.10;1.20;;;7.60;93.50;;;;;;5114896;28;20431;-73
2022/11/30 02:05:38;;;;;;;2.75;1.48;;;7.60;93.60;;;;;;5114888;28;20035;-74
2022/11/30 02:08:06;;;;;;;2.00;1.23;;;7.50;93.50;;;;;;5114826;28;20096;-74
2022/11/30 02:10:37;;;;;;;3.08;1.50;;;7.50;93.50;;;;;;5096720;28;20066;-74
2022/11/30 02:13:20;;;;;;;3.22;1.60;;;7.50;93.50;;;;;;5096770;28;20497;-74
2022/11/30 02:16:05;;;;;;;2.90;1.67;;;7.50;93.50;;;;;;5114697;28;20043;-74
2022/11/30 02:18:45;;;;;;;2.60;1.45;;;7.50;93.50;;;;;;5114680;28;20044;-74
2022/11/30 02:21:34;;;;;;;2.33;1.38;;;7.40;93.50;;;;;;5114522;28;20160;-74
2022/11/30 02:24:28;;;;;;;2.20;1.23;;;7.40;93.50;;;;;;5096624;28;20040;-74
2022/11/30 02:27:08;;;;;;;1.88;1.13;;;7.50;93.60;;;;;;5100658;28;20093;-74
2022/11/30 02:29:39;;;;;;;2.67;1.30;;;7.40;93.50;;;;;;5096020;28;20035;-74
2022/11/30 02:32:21;;;;;;;;;;;7.40;93.50;;;;;;5114683;28;20039;-74
2022/11/30 02:34:49;;;;;;;1.45;0.82;;;7.40;93.50;;;;;;5114751;28;19911;-74
2022/11/30 02:37:15;;;;;;;2.33;1.10;;;7.30;93.50;;;;;;5113844;28;20051;-74
2022/11/30 02:39:42;;;;;;;2.85;1.50;;;7.40;93.50;;;;;;5113969;28;20043;-73
2022/11/30 02:42:12;;;;;;;2.92;1.50;;;7.40;93.50;;;;;;5113894;28;20044;-74
2022/11/30 02:44:40;;;;;;;2.22;1.23;;;7.30;93.50;;;;;;5114430;28;20047;-74
2022/11/30 02:47:34;;;;;;;2.13;1.08;;;7.40;93.50;;;;;;5114291;28;20591;-73
2022/11/30 02:50:07;;;;;;;1.65;1.05;;;7.40;93.50;;;;;;5114438;28;20406;-74
2022/11/30 02:52:34;;;;;;;1.65;1.13;;;7.40;93.50;;;;;;5113987;28;20032;-74
2022/11/30 02:55:09;;;;;;;3.10;1.27;;;7.40;93.50;;;;;;5113946;28;20051;-74
2022/11/30 02:57:34;;;;;;;1.80;1.20;;;7.40;93.50;;;;;;5113903;28;20069;-73
2022/11/30 03:00:03;;;;;;;2.22;1.30;;;7.40;93.50;;;;;;5113722;28;20123;-73
2022/11/30 03:02:29;;;;;;;2.15;1.20;;;7.40;93.50;;;;;;5113560;28;20130;-73
2022/11/30 03:04:54;;;;;;;3.42;1.50;;;7.40;93.50;;;;;;5095807;28;20169;-73
2022/11/30 03:07:20;;;;;;;2.03;1.17;;;7.40;93.50;;;;;;5113993;28;20126;-74
2022/11/30 03:09:46;;;;;;;2.85;1.20;;;7.40;93.50;;;;;;5114161;28;20135;-73
2022/11/30 03:12:11;;;;;;;2.28;1.42;;;7.30;93.50;;;;;;5095432;28;20127;-73
2022/11/30 03:14:37;;;;;;;2.40;1.30;;;7.40;93.50;;;;;;5113627;28;20042;-74
2022/11/30 03:17:04;;;;;;;2.55;1.30;;;7.40;93.50;;;;;;5113399;28;20531;-74
2022/11/30 03:19:30;;;;;;;1.88;1.30;;;7.40;93.50;;;;;;5113774;28;20067;-74
2022/11/30 03:21:55;;;;;;;2.15;1.20;;;7.30;93.50;;;;;;5113542;28;20465;-73
2022/11/30 03:24:21;;;;;;;2.20;1.23;;;7.40;93.50;;;;;;5095011;28;20090;-74
2022/11/30 03:26:46;;;;;;;2.65;1.30;;;7.30;93.50;;;;;;5095137;28;20389;-74
2022/11/30 03:29:12;;;;;;;2.47;1.27;;;7.30;93.50;;;;;;5113385;28;20089;-73
2022/11/30 03:31:38;;;;;;;2.70;1.40;;;7.30;93.50;;;;;;5113130;28;20031;-73
2022/11/30 03:34:03;;;;;;;2.63;1.40;;;7.30;93.50;;;;;;5094773;28;20047;-73
2022/11/30 03:36:29;;;;;;;1.92;1.13;;;7.50;93.50;;;;;;5094692;28;20054;-73
2022/11/30 03:38:54;;;;;;;2.60;1.40;;;7.30;93.50;;;;;;5113215;28;20051;-73
2022/11/30 03:41:20;;;;;;;2.25;1.25;;;7.30;93.50;;;;;;5113078;28;20672;-73
2022/11/30 03:43:46;;;;;;;2.03;1.20;;;7.30;93.50;;;;;;5094848;28;20040;-73
2022/11/30 03:46:12;;;;;;;2.45;1.35;;;7.30;93.50;;;;;;5113401;28;20040;-74
2022/11/30 03:48:39;;;;;;;2.47;1.20;;;7.30;93.50;;;;;;5112620;28;20484;-74
2022/11/30 03:51:05;;;;;;;2.08;1.15;;;7.30;93.50;;;;;;5112943;28;20115;-73
2022/11/30 03:53:32;;;;;;;1.63;1.00;;;7.30;93.50;;;;;;5113621;28;20063;-74
2022/11/30 03:56:00;;;;;;;1.65;1.17;;;7.30;93.50;;;;;;5095488;28;20035;-74
2022/11/30 03:58:26;;;;;;;2.15;1.20;;;7.30;93.50;;;;;;5113645;28;20074;-74
2022/11/30 04:01:10;;;;;;;2.35;1.27;;;7.20;93.50;;;;;;5113000;28;20404;-73
2022/11/30 04:03:36;;;;;;;3.10;1.40;;;7.10;93.50;;;;;;5113375;28;20043;-73
2022/11/30 04:06:03;;;;;;;2.85;1.40;;;7.10;93.50;;;;;;5112861;28;20372;-74
2022/11/30 04:08:30;;;;;;;2.85;1.40;;;7.10;93.50;;;;;;5113409;28;20084;-73
2022/11/30 04:10:57;;;;;;;2.47;1.30;;;7.00;93.50;;;;;;5113386;28;20122;-73
2022/11/30 04:13:24;;;;;;;2.10;1.25;;;7.00;93.60;;;;;;5077938;28;20043;-73
2022/11/30 04:15:51;;;;;;;2.42;1.30;;;6.80;93.60;;;;;;5112667;28;20051;-73
2022/11/30 04:18:18;;;;;;;2.55;1.30;;;6.80;93.60;;;;;;5112666;28;20089;-73
2022/11/30 04:20:44;;;;;;;3.38;1.65;;;6.80;93.60;;;;;;5112810;28;20043;-73
2022/11/30 04:23:10;;;;;;;1.90;1.30;;;6.70;93.60;;;;;;5113099;28;20036;-74
2022/11/30 04:25:39;;;;;;;2.10;1.33;;;6.70;93.70;;;;;;5112603;28;20039;-73
2022/11/30 04:28:05;;;;;;;3.33;1.40;;;6.60;93.70;;;;;;5113051;28;20122;-74
2022/11/30 04:30:32;;;;;;;2.90;1.40;;;6.50;93.70;;;;;;5094564;28;20431;-73
2022/11/30 04:32:57;;;;;;;2.38;1.52;;;6.50;93.80;;;;;;5112599;28;20124;-74
2022/11/30 04:35:23;;;;;;;2.22;1.30;;;6.40;93.80;;;;;;5112906;28;20401;-73
2022/11/30 04:37:49;;;;;;;2.60;1.40;;;6.40;93.80;;;;;;5112371;28;20112;-73
2022/11/30 04:40:14;;;;;;;2.28;1.20;;;6.40;93.80;;;;;;5094155;28;20424;-73
2022/11/30 04:42:40;;;;;;;2.13;1.30;;;6.30;93.70;;;;;;5112733;28;20044;-74
2022/11/30 04:45:06;;;;;;;1.95;1.02;;;6.20;93.80;;;;;;5112312;28;20042;-73
2022/11/30 04:47:32;;;;;;;2.25;1.27;;;6.20;93.80;;;;;;5112282;28;20035;-73
2022/11/30 04:49:58;;;;;;;2.30;1.13;;;6.20;93.80;;;;;;5094139;28;20172;-74
2022/11/30 04:52:24;;;;;;;2.33;1.10;;;6.10;93.80;;;;;;5093818;28;20036;-73
2022/11/30 04:54:50;;;;;;;2.15;1.30;;;6.00;93.80;;;;;;5112364;28;20040;-73
2022/11/30 04:57:16;;;;;;;2.72;1.50;;;6.10;93.80;;;;;;5112073;28;20039;-74
2022/11/30 04:59:42;;;;;;;2.05;1.27;;;6.00;93.80;;;;;;5112892;28;20060;-73
2022/11/30 05:02:08;;;;;;;2.47;1.30;;;5.90;93.80;;;;;;5115889;28;20512;-74
2022/11/30 05:04:33;;;;;;;2.65;1.10;;;5.90;93.80;;;;;;5097577;28;20043;-73
2022/11/30 05:06:59;;;;;;;2.28;1.23;;;5.90;93.80;;;;;;5115839;28;20040;-73
2022/11/30 05:09:24;;;;;;;2.60;1.50;;;5.80;93.80;;;;;;5098243;28;20044;-73
2022/11/30 05:11:50;;;;;;;2.08;1.30;;;5.70;93.80;;;;;;5115733;28;20545;-73
2022/11/30 05:14:16;;;;;;;2.70;1.50;;;5.70;93.80;;;;;;5115912;28;20541;-73
2022/11/30 05:16:41;;;;;;;2.28;1.10;;;5.70;93.80;;;;;;5097895;28;20051;-73
2022/11/30 05:19:07;;;;;;;2.83;1.30;;;5.60;93.80;;;;;;5097449;28;20123;-74
2022/11/30 05:21:33;;;;;;;2.90;1.27;;;5.50;93.80;;;;;;5097399;28;20044;-74
2022/11/30 05:23:58;;;;;;;1.80;1.25;;;5.50;93.80;;;;;;5115432;28;20038;-73
2022/11/30 05:26:24;;;;;;;3.25;1.40;;;5.50;93.80;;;;;;5097901;28;20040;-74
2022/11/30 05:28:49;;;;;;;1.27;1.08;;;5.40;93.80;;;;;;5097854;28;20457;-73
2022/11/30 05:31:16;;;;;;;2.22;1.13;;;5.40;93.80;;;;;;5115496;28;20044;-73
2022/11/30 05:33:41;;;;;;;1.95;1.20;;;5.40;93.90;;;;;;5097830;28;20032;-74
2022/11/30 05:36:07;;;;;;;2.85;1.33;;;5.30;93.80;;;;;;5116168;28;20526;-73
2022/11/30 05:38:33;;;;;;;2.25;1.35;;;5.30;93.80;;;;;;5097271;28;20138;-74
2022/11/30 05:41:00;;;;;;;2.45;1.10;;;5.20;93.90;;;;;;5115913;28;20517;-74
2022/11/30 05:43:26;;;;;;;2.42;1.20;;;5.20;93.90;;;;;;5115515;28;20039;-74
2022/11/30 05:45:52;;;;;;;1.55;0.95;;;5.20;93.90;;;;;;5116315;28;20474;-73
2022/11/30 05:48:17;;;;;;;2.17;1.25;;;5.20;93.90;;;;;;5116135;28;20059;-74
2022/11/30 05:50:43;;;;;;;1.67;0.90;;;5.20;93.90;;;;;;5115433;28;20046;-73
2022/11/30 05:53:08;;;;;;;1.73;0.90;;;5.10;93.80;;;;;;5115279;28;20043;-74
2022/11/30 05:55:35;;;;;;;1.67;1.00;;;5.10;93.90;;;;;;5097424;28;20051;-73
2022/11/30 05:58:00;;;;;;;2.10;1.10;;;5.00;93.90;;;;;;5115744;28;20044;-73
2022/11/30 06:00:26;;;;;;;1.92;1.00;;;5.00;93.90;;;;;;5115255;28;20035;-73
2022/11/30 06:02:56;;;;;;;2.40;1.17;;;5.00;93.90;;;;;;5115006;28;20039;-74
2022/11/30 06:05:22;;;;;;;2.35;1.10;;;4.90;93.90;;;;;;5096791;28;20512;-73
2022/11/30 06:07:48;;;;;;;1.77;1.00;;;4.90;93.90;;;;;;5097092;28;20064;-73
2022/11/30 06:10:14;;;;;;;2.28;1.17;;;4.90;93.90;;;;;;5115054;28;20040;-73
2022/11/30 06:12:39;;;;;;;1.73;1.15;;;4.90;93.90;;;;;;5114843;28;20150;-73
2022/11/30 06:15:06;;;;;;;1.75;1.08;;;4.90;93.90;;;;;;5096625;28;20044;-73
2022/11/30 06:17:32;;;;;;;2.03;1.10;;;4.80;93.80;;;;;;5097053;28;20043;-73
2022/11/30 06:19:58;;;;;;;1.83;0.90;;;4.80;93.80;;;;;;5096551;28;20088;-73
2022/11/30 06:22:23;;;;;;;1.73;1.10;;;4.80;93.80;;;;;;5079403;28;20046;-73
2022/11/30 06:24:49;;;;;;;2.33;1.20;;;4.80;93.80;;;;;;5096424;28;20463;-73
2022/11/30 06:27:14;;;;;;;1.55;1.00;;;4.70;93.80;;;;;;5079339;28;20035;-72
2022/11/30 06:29:41;;;;;;;1.38;0.95;;;4.70;93.80;;;;;;5079548;28;20043;-73
2022/11/30 06:32:07;;;;;;;2.28;1.20;;;4.70;93.80;;;;;;5079310;28;20397;-73
2022/11/30 06:34:32;;;;;;;1.75;0.93;;;4.70;93.80;;;;;;5114616;28;20102;-73
2022/11/30 06:36:58;;;;;;;2.08;1.08;;;4.60;93.80;;;;;;5096509;28;20482;-73
2022/11/30 06:39:24;;;;;;;2.10;1.25;;;4.60;93.80;;;;;;5114784;28;20153;-73
2022/11/30 06:41:49;;;;;;;2.15;1.15;;;4.50;93.80;;;;;;5114720;28;20043;-73
2022/11/30 06:44:15;;;;;;;1.05;0.80;;;4.50;93.90;;;;;;5114527;28;20043;-73
2022/11/30 06:46:40;;;;;;;2.08;1.15;;;4.40;93.90;;;;;;5114841;28;20038;-73
2022/11/30 06:49:06;;;;;;;2.25;1.00;;;4.40;93.90;;;;;;5096013;28;20115;-73
2022/11/30 06:51:32;;;;;;;1.88;1.10;;;4.40;93.90;;;;;;5079157;28;20435;-73
2022/11/30 06:53:58;;;;;;;2.15;1.10;;;4.40;93.90;;;;;;5114670;28;20040;-73
2022/11/30 06:56:23;;;;;;;1.60;0.80;;;4.40;93.90;;;;;;5114142;28;20048;-73
2022/11/30 06:58:49;;;;;;;1.40;0.95;;;4.30;93.90;;;;;;5096604;28;20035;-73
2022/11/30 07:01:15;;;;;;;2.10;1.20;;;4.30;93.90;;;;;;5096051;28;20503;-74
2022/11/30 07:03:41;;;;;;;2.10;1.08;;;4.30;93.90;;;;;;5112540;28;20122;-73
2022/11/30 07:06:09;;;;;;;1.88;0.90;;;4.20;93.90;;;;;;5096641;28;20086;-73
2022/11/30 07:08:35;;;;;;;2.10;1.20;;;4.20;93.90;;;;;;5114752;28;20119;-74
2022/11/30 07:11:00;;;;;;;1.95;1.27;;;4.20;93.90;;;;;;5114778;28;20496;-74
2022/11/30 07:13:26;;;;;;;1.80;1.10;;;4.10;93.90;;;;;;5114611;28;20126;-74
2022/11/30 07:15:51;;;;;;;1.98;1.00;;;4.20;93.90;;;;;;5095782;28;20056;-75
2022/11/30 07:18:17;;;;;;;2.40;1.33;;;4.10;93.80;;;;;;5113913;28;20051;-75
2022/11/30 07:20:43;;;;;;;2.72;1.48;;;4.10;93.80;;;;;;5113926;28;20053;-74
2022/11/30 07:28:30;;;;;;;1.63;0.95;;;4.10;93.80;;;;;;5113768;28;20054;-75
2022/11/30 07:30:55;;;;;;;1.92;1.15;;;4.00;93.80;;;;;;5095329;28;20043;-74
2022/11/30 07:33:40;;;;;;;1.85;0.93;;;4.00;93.80;;;;;;5112590;28;20131;-76
2022/11/30 07:36:10;;;;;;;1.77;0.90;;;4.00;94.20;;;;;;5010730;28;20412;-76
2022/11/30 07:42:45;;;;;;;2.35;0.88;;;4.00;93.80;;;;;;4875889;29;20045;-76
2022/11/30 07:45:11;;;;;;;1.45;0.90;;;4.10;93.90;;;;;;4838193;29;20066;-76
2022/11/30 08:01:28;;;;;;;1.38;0.88;;;4.30;93.60;;;;;;4831968;29;20056;-77
2022/11/30 08:03:54;;;;;;;1.85;0.90;;;4.40;93.50;;;;;;4855079;29;20128;-77
2022/11/30 08:06:23;;;;;;;2.35;1.17;;;4.40;93.60;;;;;;4858156;29;20033;-76
2022/11/30 08:08:50;;;;;;;2.35;1.20;;;4.50;93.60;;;;;;4858578;29;20507;-76
2022/11/30 08:11:22;;;;;;;1.88;1.10;;;4.70;93.60;;;;;;4858708;29;20042;-77
2022/11/30 08:13:50;;;;;;;1.83;0.90;;;4.60;93.60;;;;;;4889422;29;20055;-76
2022/11/30 08:16:21;;;;;;;1.63;1.10;;;4.70;93.50;;;;;;4885408;29;20052;-78
2022/11/30 08:18:47;;;;;;;1.83;1.00;;;4.80;93.50;;;;;;4863399;29;20049;-78
2022/11/30 08:21:15;;;;;;;1.35;0.90;;;4.80;93.50;;;;;;4886678;28;20047;-77
2022/11/30 08:23:43;;;;;;;3.10;1.40;;;4.90;93.40;;;;;;4955511;28;20120;-77
2022/11/30 08:26:12;;;;;;;2.05;1.13;;;4.90;93.40;;;;;;4971194;28;20097;-77
2022/11/30 08:29:30;;;;;;;2.35;1.20;;;5.00;93.40;;;;;;4955139;28;20450;-77
2022/11/30 08:34:50;;;;;;;1.83;1.10;;;5.10;93.30;;;;;;4894457;29;20061;-76
2022/11/30 08:37:16;;;;;;;2.05;1.13;;;5.20;93.30;;;;;;4880137;29;20049;-75
2022/11/30 08:43:24;;;;;;;2.10;1.15;;;5.30;93.30;;;;;;4817921;29;20054;-76
2022/11/30 08:45:49;;;;;;;2.90;1.40;;;5.40;93.20;;;;;;4821831;29;20052;-77
2022/11/30 08:48:15;;;;;;;1.95;1.10;;;5.50;93.20;;;;;;4821110;29;20076;-77
2022/11/30 08:50:41;;;;;;;2.00;1.00;;;5.50;93.20;;;;;;4821785;29;20459;-77
2022/11/30 08:53:12;;;;;;;2.78;1.40;;;5.50;93.10;;;;;;4836926;29;20473;-77
2022/11/30 08:55:37;;;;;;;2.70;1.30;;;5.50;93.10;;;;;;4839252;29;20053;-76
2022/11/30 08:58:03;;;;;;;2.72;1.60;;;5.60;93.10;;;;;;4839625;29;20440;-76
2022/11/30 09:00:29;;;;;;;3.67;1.60;;;5.70;93.20;;;;;;4839832;29;20460;-77
2022/11/30 09:03:02;;;;;;;4.20;1.80;;;5.70;93.40;;;;;;4842843;29;20485;-78
2022/11/30 09:05:38;;;;;;;3.53;1.60;;;5.70;93.20;;;;;;4848879;29;20068;-78
2022/11/30 09:08:04;;;;;;;3.00;1.50;;;5.80;93.20;;;;;;4840896;29;20046;-76
2022/11/30 09:10:30;;;;;;;3.50;1.30;;;5.80;93.20;;;;;;4869446;29;20041;-77
2022/11/30 09:13:22;;;;;;;2.75;1.60;;;5.80;93.10;;;;;;4884786;29;20029;-78
2022/11/30 09:16:18;;;;;;;3.70;1.65;;;5.90;93.20;;;;;;4877478;29;20041;-82
2022/11/30 09:26:22;;;;;;;2.33;1.48;;;6.10;93.20;;;;;;4926602;29;20048;-80
2022/11/30 09:29:02;;;;;;;3.70;1.52;;;6.10;93.10;;;;;;4891154;29;20080;-80
2022/11/30 09:31:28;;;;;;;3.08;1.73;;;6.30;93.10;;;;;;4858713;29;20104;-78
2022/11/30 09:33:56;;;;;;;4.55;1.90;;;6.20;93.10;;;;;;4842341;29;20460;-77
2022/11/30 09:36:26;;;;;;;3.30;1.48;;;6.30;93.10;;;;;;4840962;29;20150;-78
2022/11/30 09:39:11;;;;;;;3.28;1.63;;;6.30;93.10;;;;;;4841290;29;20037;-76
2022/11/30 09:45:17;;;;;;;;;;;6.40;93.10;;;;;;4823033;29;20118;-76
2022/11/30 09:48:02;;;;;;;3.35;1.83;;;6.50;93.10;;;;;;4831994;29;19915;-75
2022/11/30 09:50:31;;;;;;;5.50;2.55;;;6.50;93.00;;;;;;4875053;29;20049;-74
2022/11/30 09:53:02;;;;;;;4.00;2.00;;;6.60;93.00;;;;;;4878575;29;20512;-74
2022/11/30 09:55:40;;;;;;;3.20;1.70;;;6.50;93.00;;;;;;4905253;29;20032;-75
2022/11/30 09:58:10;;;;;;;4.85;2.15;;;6.50;93.00;;;;;;4941491;28;20034;-73
2022/11/30 10:01:16;;;;;;;3.85;2.22;;;6.60;93.00;;;;;;5049193;28;20106;-78
2022/11/30 10:03:51;;;;;;;3.60;2.03;;;6.70;93.00;;;;;;5070529;28;20051;-78
2022/11/30 10:10:07;;;;;;;4.10;2.08;;;6.80;93.00;;;;;;4970867;28;20082;-78
2022/11/30 10:12:55;;;;;;;4.20;2.15;;;6.90;93.00;;;;;;4961810;28;20077;-76
2022/11/30 10:15:33;;;;;;;2.90;1.65;;;6.80;92.90;;;;;;4976280;28;20114;-78
2022/11/30 10:18:21;;;;;;;4.63;2.08;;;7.00;93.00;;;;;;4937719;29;20089;-77
2022/11/30 10:24:43;;;;;;;3.27;1.87;;;7.10;93.00;;;;;;4938497;29;20391;-78
2022/11/30 10:27:30;;;;;;;4.05;2.08;;;7.20;92.90;;;;;;4943165;29;20047;-77
2022/11/30 10:30:00;;;;;;;3.40;1.90;;;7.10;92.80;;;;;;4954358;29;20474;-76
2022/11/30 10:33:09;;;;;;;4.75;1.90;;;7.10;92.90;;;;;;4953571;29;20450;-77
2022/11/30 10:35:42;;;;;;;4.35;2.00;;;7.20;92.90;;;;;;4886353;29;20036;-77
2022/11/30 10:38:23;;;;;;;4.22;2.10;;;7.00;93.00;;;;;;4899980;29;20040;-76
2022/11/30 10:40:57;;;;;;;3.72;1.58;;;7.10;93.00;;;;;;4914583;29;20035;-77
2022/11/30 10:43:37;;;;;;;4.65;2.13;;;7.10;93.00;;;;;;4914364;29;20045;-77
2022/11/30 10:46:04;;;;;;;4.10;2.20;;;7.10;93.00;;;;;;4910531;29;20097;-77
2022/11/30 10:51:58;;;;;;;2.83;1.58;;;7.10;93.10;;;;;;4991075;28;20526;-77
2022/11/30 10:54:23;;;;;;;;;;;7.10;93.10;;;;;;5012338;28;20136;-77
2022/11/30 10:56:49;;;;;;;3.30;1.65;;;7.10;93.00;;;;;;5012327;28;20011;-78
2022/11/30 10:59:26;;;;;;;3.22;1.73;;;7.10;93.00;;;;;;4995226;28;20041;-77
2022/11/30 11:01:53;;;;;;;3.55;1.80;;;7.10;93.00;;;;;;4998138;28;20069;-77
2022/11/30 11:04:23;;;;;;;3.00;1.77;;;7.20;93.00;;;;;;4997837;28;20535;-77
2022/11/30 11:06:58;;;;;;;3.45;1.92;;;7.20;93.00;;;;;;5025234;28;20555;-77
2022/11/30 11:09:38;;;;;;;3.63;2.00;;;7.20;93.00;;;;;;5031497;28;20162;-76
2022/11/30 11:12:24;;;;;;;3.72;1.77;;;7.30;93.00;;;;;;4998327;28;20037;-76
2022/11/30 11:15:16;;;;;;;4.65;2.30;;;7.30;92.90;;;;;;5014696;28;20110;-76
2022/11/30 11:17:43;;;;;;;4.05;2.03;;;7.40;92.90;;;;;;5046680;28;20114;-75
2022/11/30 11:20:27;;;;;;;3.95;1.98;;;7.40;92.90;;;;;;5034426;28;20045;-75
2022/11/30 11:22:53;;;;;;;5.60;2.53;;;7.50;93.10;;;;;;5034261;28;20552;-76
2022/11/30 11:25:24;;;;;;;5.70;2.60;;;7.50;92.80;;;;;;5034464;28;20040;-76
2022/11/30 11:27:53;;;;;;;4.78;2.30;;;7.50;92.70;;;;;;5034085;28;20163;-75
2022/11/30 11:33:26;;;;;;;5.70;2.70;;;7.60;92.60;;;;;;5010747;28;20165;-75
2022/11/30 11:36:13;;;;;;;6.35;2.95;;;7.70;92.60;;;;;;4994606;28;20400;-75
2022/11/30 11:38:47;;;;;;;5.28;2.40;;;7.70;92.50;;;;;;5044723;28;20060;-76
2022/11/30 11:41:28;;;;;;;4.47;2.28;;;7.80;92.50;;;;;;4994170;28;20098;-76
2022/11/30 11:44:14;;;;;;;4.25;2.30;;;7.70;92.80;;;;;;5007381;28;20042;-77
2022/11/30 11:47:06;;;;;;;3.80;1.80;;;7.90;92.50;;;;;;4989366;28;20070;-76
2022/11/30 11:50:08;;;;;;;;;;;8.00;92.50;;;;;;4974655;28;20525;-77
2022/11/30 11:56:33;;;;;;;4.85;2.05;;;7.90;92.40;;;;;;4860364;29;20041;-76
2022/11/30 11:59:25;;;;;;;3.50;1.90;;;8.10;92.30;;;;;;4875373;29;20090;-76
2022/11/30 12:02:10;;;;;;;4.85;2.28;;;8.10;92.20;;;;;;4873992;29;20056;-75
2022/11/30 12:04:46;;;;;;;3.28;2.08;;;8.10;92.20;;;;;;4878161;29;20052;-75
2022/11/30 12:07:33;;;;;;;3.65;1.73;;;8.10;92.20;;;;;;4893819;29;20143;-75
2022/11/30 12:10:36;;;;;;;3.28;1.60;;;8.20;92.20;;;;;;4896531;29;20040;-76
2022/11/30 12:13:13;;;;;;;3.60;1.98;;;8.10;92.20;;;;;;4880662;29;20104;-76
2022/11/30 12:23:38;;;;;;;3.38;1.77;;;8.20;92.20;;;;;;4933344;29;20040;-78
2022/11/30 12:26:45;;;;;;;4.15;1.90;;;8.20;92.20;;;;;;4940586;29;20050;-75
2022/11/30 12:29:35;;;;;;;4.65;1.80;;;8.20;92.20;;;;;;4937195;29;20051;-75
2022/11/30 12:32:22;;;;;;;3.85;1.85;;;8.30;92.30;;;;;;4911022;29;20036;-75
2022/11/30 12:35:21;;;;;;;3.60;2.00;;;8.30;92.20;;;;;;4951831;28;20039;-77
2022/11/30 12:38:12;;;;;;;2.97;1.80;;;8.20;92.20;;;;;;4949548;28;20563;-76
2022/11/30 12:41:02;;;;;;;3.47;1.83;;;8.20;92.20;;;;;;4932867;29;20036;-76
2022/11/30 12:51:01;;;;;;;2.45;1.50;;;8.10;92.20;;;;;;4888786;29;20046;-75
2022/11/30 12:53:52;;;;;;;4.15;1.60;;;8.20;92.20;;;;;;4876241;29;20045;-74
2022/11/30 12:56:34;;;;;;;3.17;1.73;;;8.20;92.20;;;;;;4860391;29;20044;-75
2022/11/30 12:59:18;;;;;;;3.05;1.63;;;8.10;92.20;;;;;;4864024;29;20040;-75
2022/11/30 13:02:24;;;;;;;2.88;1.55;;;8.10;92.20;;;;;;4880616;29;20411;-74
2022/11/30 13:04:57;;;;;;;3.47;1.83;;;8.10;92.30;;;;;;4970864;28;20047;-74
2022/11/30 13:07:44;;;;;;;3.70;1.83;;;8.10;92.30;;;;;;4968584;28;20094;-74
2022/11/30 13:10:26;;;;;;;3.65;1.85;;;8.10;92.30;;;;;;4970872;28;20481;-74
2022/11/30 13:12:53;;;;;;;4.72;2.10;;;8.20;92.30;;;;;;4971680;28;20047;-75
2022/11/30 13:15:22;;;;;;;4.22;2.10;;;8.10;92.30;;;;;;4971597;28;20062;-74
2022/11/30 13:17:55;;;;;;;4.32;2.03;;;8.10;92.30;;;;;;4969893;28;20043;-77
2022/11/30 13:20:42;;;;;;;4.35;1.95;;;8.10;92.20;;;;;;4952969;28;20453;-76
2022/11/30 13:23:20;;;;;;;3.13;1.60;;;8.10;92.20;;;;;;4976002;28;20078;-77
2022/11/30 13:26:23;;;;;;;4.10;1.90;;;8.00;92.20;;;;;;4990904;28;20072;-77
2022/11/30 13:52:11;;;;;;;3.42;1.80;;;8.00;92.20;;;;;;4715868;30;20052;-76
2022/11/30 14:16:46;;;;;;;2.80;1.55;;;7.90;92.30;;;;;;4627343;30;20149;-75
2022/11/30 14:19:12;;;;;;;3.15;1.52;;;7.90;92.20;;;;;;4651929;30;20054;-75
2022/11/30 14:21:43;;;;;;;3.47;1.70;;;7.90;92.20;;;;;;4753169;30;20055;-75
2022/11/30 14:24:20;;;;;;;3.45;1.50;;;7.90;92.20;;;;;;4753435;30;20052;-75
2022/11/30 14:26:49;;;;;;;3.88;1.70;;;7.80;92.20;;;;;;4792140;29;20129;-75
2022/11/30 14:29:23;;;;;;;3.92;1.80;;;7.80;92.30;;;;;;4848927;29;20405;-75
2022/11/30 14:31:59;;;;;;;3.08;1.55;;;7.80;92.30;;;;;;4845128;29;20478;-74
2022/11/30 14:34:48;;;;;;;3.05;1.73;;;7.80;92.30;;;;;;4861799;29;20049;-74
2022/11/30 14:37:21;;;;;;;3.10;1.40;;;7.80;92.30;;;;;;4895194;29;20049;-74
2022/11/30 14:39:48;;;;;;;2.60;1.35;;;7.80;92.30;;;;;;4896580;29;20515;-75
2022/11/30 14:42:21;;;;;;;3.55;1.60;;;7.80;92.30;;;;;;4889778;28;20103;-73
2022/11/30 14:44:48;;;;;;;2.17;1.40;;;7.80;92.30;;;;;;5111335;28;20469;-76
2022/11/30 14:47:20;;;;;;;2.97;1.48;;;7.80;92.30;;;;;;5114370;28;20488;-75
2022/11/30 14:49:50;;;;;;;3.75;1.85;;;7.80;92.30;;;;;;5114364;28;20397;-74
2022/11/30 14:52:33;;;;;;;3.22;1.75;;;7.80;92.30;;;;;;5079648;28;20397;-74
2022/11/30 14:55:16;;;;;;;4.63;2.20;;;7.80;92.30;;;;;;5114480;28;20123;-74
2022/11/30 14:57:53;;;;;;;3.13;1.80;;;7.90;92.30;;;;;;5064833;28;20039;-74
2022/11/30 15:00:20;;;;;;;3.67;1.95;;;7.70;92.30;;;;;;5115031;28;20039;-74
2022/11/30 15:02:47;;;;;;;3.75;1.92;;;7.70;92.30;;;;;;5114773;28;20120;-74
2022/11/30 15:05:21;;;;;;;2.72;1.73;;;7.70;92.30;;;;;;5079020;28;20040;-75
2022/11/30 15:07:47;;;;;;;3.85;2.10;;;7.70;92.30;;;;;;5099238;28;20031;-75
2022/11/30 15:10:28;;;;;;;4.13;2.20;;;7.70;92.30;;;;;;5083234;28;20122;-75
2022/11/30 15:13:07;;;;;;;3.80;2.08;;;7.70;92.30;;;;;;5054004;28;20045;-76
2022/11/30 15:15:32;;;;;;;3.55;2.00;;;7.60;92.30;;;;;;5018292;28;20056;-74
2022/11/30 15:18:13;;;;;;;4.60;2.00;;;7.70;92.30;;;;;;5034373;28;20057;-74